sensor_id;sensor_type;location;lat;lon;timestamp;pressure;altitude;pressure_sealevel;temperature;humidity
64402;BME280;50724;42.376;23.768;2023-04-20T00:01:31;92785.84;;;7.74;82.86
64402;BME280;50724;42.376;23.768;2023-04-20T00:04:41;92783.59;;;7.71;82.10
64402;BME280;50724;42.376;23.768;2023-04-20T00:07:41;92779.34;;;7.70;83.17
64402;BME280;50724;42.376;23.768;2023-04-20T00:10:43;92776.75;;;7.70;81.29
64402;BME280;50724;42.376;23.768;2023-04-20T00:13:44;92774.00;;;7.80;80.90
64402;BME280;50724;42.376;23.768;2023-04-20T00:16:44;92769.09;;;7.77;80.40
64402;BME280;50724;42.376;23.768;2023-04-20T00:19:45;92762.78;;;7.79;80.51
64402;BME280;50724;42.376;23.768;2023-04-20T00:22:46;92760.19;;;7.79;81.32
64402;BME280;50724;42.376;23.768;2023-04-20T00:25:46;92756.44;;;7.82;81.60
64402;BME280;50724;42.376;23.768;2023-04-20T00:28:49;92759.34;;;7.79;82.41
64402;BME280;50724;42.376;23.768;2023-04-20T00:31:50;92747.66;;;7.83;81.69
64402;BME280;50724;42.376;23.768;2023-04-20T00:34:50;92746.19;;;7.88;82.09
64402;BME280;50724;42.376;23.768;2023-04-20T00:37:51;92744.25;;;7.90;82.14
64402;BME280;50724;42.376;23.768;2023-04-20T00:40:51;92750.59;;;7.88;82.27
64402;BME280;50724;42.376;23.768;2023-04-20T00:43:53;92739.72;;;7.92;81.01
64402;BME280;50724;42.376;23.768;2023-04-20T00:46:53;92739.91;;;7.99;80.54
64402;BME280;50724;42.376;23.768;2023-04-20T00:49:56;92746.41;;;8.03;80.54
64402;BME280;50724;42.376;23.768;2023-04-20T00:52:56;92740.72;;;7.99;80.71
64402;BME280;50724;42.376;23.768;2023-04-20T00:55:57;92731.44;;;7.97;80.14
64402;BME280;50724;42.376;23.768;2023-04-20T00:58:58;92732.41;;;7.96;80.46
64402;BME280;50724;42.376;23.768;2023-04-20T01:01:59;92732.69;;;7.85;80.99
64402;BME280;50724;42.376;23.768;2023-04-20T01:04:59;92736.91;;;7.78;81.68
64402;BME280;50724;42.376;23.768;2023-04-20T01:08:00;92737.41;;;7.81;82.13
64402;BME280;50724;42.376;23.768;2023-04-20T01:11:01;92735.88;;;7.62;82.53
64402;BME280;50724;42.376;23.768;2023-04-20T01:14:01;92739.25;;;7.55;83.63
64402;BME280;50724;42.376;23.768;2023-04-20T01:17:02;92741.19;;;7.45;84.03
64402;BME280;50724;42.376;23.768;2023-04-20T01:20:05;92738.25;;;7.40;84.26
64402;BME280;50724;42.376;23.768;2023-04-20T01:23:08;92734.00;;;7.39;83.42
64402;BME280;50724;42.376;23.768;2023-04-20T01:26:13;92722.00;;;7.46;82.61
64402;BME280;50724;42.376;23.768;2023-04-20T01:29:14;92730.03;;;7.27;83.07
64402;BME280;50724;42.376;23.768;2023-04-20T01:32:15;92737.41;;;7.31;82.88
64402;BME280;50724;42.376;23.768;2023-04-20T01:35:15;92744.31;;;7.23;83.60
64402;BME280;50724;42.376;23.768;2023-04-20T01:38:21;92736.53;;;7.23;82.89
64402;BME280;50724;42.376;23.768;2023-04-20T01:41:21;92738.00;;;7.25;82.31
64402;BME280;50724;42.376;23.768;2023-04-20T01:44:22;92743.03;;;7.27;81.69
64402;BME280;50724;42.376;23.768;2023-04-20T01:47:22;92741.25;;;7.27;81.50
64402;BME280;50724;42.376;23.768;2023-04-20T01:50:23;92740.13;;;7.22;81.90
64402;BME280;50724;42.376;23.768;2023-04-20T01:53:23;92731.50;;;7.21;81.86
64402;BME280;50724;42.376;23.768;2023-04-20T01:56:24;92741.22;;;7.19;82.28
64402;BME280;50724;42.376;23.768;2023-04-20T01:59:25;92740.72;;;7.16;82.28
64402;BME280;50724;42.376;23.768;2023-04-20T02:02:25;92742.50;;;7.15;83.09
64402;BME280;50724;42.376;23.768;2023-04-20T02:05:25;92740.91;;;7.22;82.73
64402;BME280;50724;42.376;23.768;2023-04-20T02:08:26;92734.28;;;7.28;82.37
64402;BME280;50724;42.376;23.768;2023-04-20T02:11:26;92735.22;;;7.19;83.18
64402;BME280;50724;42.376;23.768;2023-04-20T02:14:27;92726.94;;;7.23;83.54
64402;BME280;50724;42.376;23.768;2023-04-20T02:17:27;92733.56;;;7.18;84.23
64402;BME280;50724;42.376;23.768;2023-04-20T02:20:28;92737.53;;;7.30;83.19
64402;BME280;50724;42.376;23.768;2023-04-20T02:23:28;92740.41;;;7.19;84.41
64402;BME280;50724;42.376;23.768;2023-04-20T02:26:29;92739.75;;;7.17;85.58
64402;BME280;50724;42.376;23.768;2023-04-20T02:29:30;92737.28;;;7.15;85.45
64402;BME280;50724;42.376;23.768;2023-04-20T02:32:30;92735.38;;;7.17;85.88
64402;BME280;50724;42.376;23.768;2023-04-20T02:35:32;92739.44;;;7.20;85.13
64402;BME280;50724;42.376;23.768;2023-04-20T02:38:32;92734.78;;;7.31;84.65
64402;BME280;50724;42.376;23.768;2023-04-20T02:41:33;92734.63;;;7.33;84.59
64402;BME280;50724;42.376;23.768;2023-04-20T02:44:33;92743.25;;;7.33;84.43
64402;BME280;50724;42.376;23.768;2023-04-20T02:47:34;92735.09;;;7.28;85.00
64402;BME280;50724;42.376;23.768;2023-04-20T02:50:34;92735.13;;;7.36;84.53
64402;BME280;50724;42.376;23.768;2023-04-20T02:53:35;92729.63;;;7.39;84.68
64402;BME280;50724;42.376;23.768;2023-04-20T02:56:36;92731.25;;;7.40;84.24
64402;BME280;50724;42.376;23.768;2023-04-20T02:59:37;92722.00;;;7.46;83.71
64402;BME280;50724;42.376;23.768;2023-04-20T03:02:37;92717.31;;;7.49;82.17
64402;BME280;50724;42.376;23.768;2023-04-20T03:05:37;92717.47;;;7.56;81.87
64402;BME280;50724;42.376;23.768;2023-04-20T03:08:46;92719.31;;;7.72;79.08
64402;BME280;50724;42.376;23.768;2023-04-20T03:11:48;92715.28;;;7.77;78.96
64402;BME280;50724;42.376;23.768;2023-04-20T03:14:49;92706.81;;;7.75;79.03
64402;BME280;50724;42.376;23.768;2023-04-20T03:17:49;92700.94;;;7.73;79.61
64402;BME280;50724;42.376;23.768;2023-04-20T03:20:50;92710.38;;;7.74;79.84
64402;BME280;50724;42.376;23.768;2023-04-20T03:23:50;92721.44;;;7.68;80.52
64402;BME280;50724;42.376;23.768;2023-04-20T03:26:51;92723.19;;;7.59;80.44
64402;BME280;50724;42.376;23.768;2023-04-20T03:29:51;92730.66;;;7.62;80.47
64402;BME280;50724;42.376;23.768;2023-04-20T03:32:52;92731.31;;;7.64;80.32
64402;BME280;50724;42.376;23.768;2023-04-20T03:35:52;92735.25;;;7.69;79.94
64402;BME280;50724;42.376;23.768;2023-04-20T03:38:52;92724.56;;;7.80;79.20
64402;BME280;50724;42.376;23.768;2023-04-20T03:41:53;92730.53;;;7.72;80.15
64402;BME280;50724;42.376;23.768;2023-04-20T03:44:56;92736.88;;;7.70;81.50
64402;BME280;50724;42.376;23.768;2023-04-20T03:47:56;92735.09;;;7.70;80.96
64402;BME280;50724;42.376;23.768;2023-04-20T03:50:57;92738.16;;;7.66;81.10
64402;BME280;50724;42.376;23.768;2023-04-20T03:53:58;92740.13;;;7.63;82.13
64402;BME280;50724;42.376;23.768;2023-04-20T03:56:58;92741.59;;;7.66;83.15
64402;BME280;50724;42.376;23.768;2023-04-20T03:59:59;92738.81;;;7.68;83.30
64402;BME280;50724;42.376;23.768;2023-04-20T04:02:59;92744.88;;;7.76;82.73
64402;BME280;50724;42.376;23.768;2023-04-20T04:05:59;92742.91;;;7.70;82.12
64402;BME280;50724;42.376;23.768;2023-04-20T04:09:00;92750.84;;;7.60;82.59
64402;BME280;50724;42.376;23.768;2023-04-20T04:12:00;92753.09;;;7.55;82.90
64402;BME280;50724;42.376;23.768;2023-04-20T04:15:01;92757.94;;;7.50;83.04
64402;BME280;50724;42.376;23.768;2023-04-20T04:18:02;92764.13;;;7.49;83.21
64402;BME280;50724;42.376;23.768;2023-04-20T04:21:02;92759.41;;;7.53;83.51
64402;BME280;50724;42.376;23.768;2023-04-20T04:24:03;92765.63;;;7.60;83.20
64402;BME280;50724;42.376;23.768;2023-04-20T04:27:04;92761.66;;;7.48;83.79
64402;BME280;50724;42.376;23.768;2023-04-20T04:30:05;92768.34;;;7.42;84.38
64402;BME280;50724;42.376;23.768;2023-04-20T04:33:05;92763.84;;;7.52;83.82
64402;BME280;50724;42.376;23.768;2023-04-20T04:36:07;92767.09;;;7.54;83.77
64402;BME280;50724;42.376;23.768;2023-04-20T04:39:07;92770.47;;;7.55;83.76
64402;BME280;50724;42.376;23.768;2023-04-20T04:42:07;92772.47;;;7.61;84.04
64402;BME280;50724;42.376;23.768;2023-04-20T04:45:08;92765.31;;;7.63;83.81
64402;BME280;50724;42.376;23.768;2023-04-20T04:48:09;92768.28;;;7.68;84.40
64402;BME280;50724;42.376;23.768;2023-04-20T04:51:11;92768.59;;;7.65;83.84
64402;BME280;50724;42.376;23.768;2023-04-20T04:54:11;92766.81;;;7.66;83.95
64402;BME280;50724;42.376;23.768;2023-04-20T04:57:12;92767.63;;;7.74;84.31
64402;BME280;50724;42.376;23.768;2023-04-20T05:00:14;92773.31;;;7.70;83.91
64402;BME280;50724;42.376;23.768;2023-04-20T05:03:15;92768.81;;;7.80;83.70
64402;BME280;50724;42.376;23.768;2023-04-20T05:06:15;92775.91;;;7.70;84.64
64402;BME280;50724;42.376;23.768;2023-04-20T05:09:16;92776.31;;;7.83;83.89
64402;BME280;50724;42.376;23.768;2023-04-20T05:12:16;92777.31;;;7.90;84.33
64402;BME280;50724;42.376;23.768;2023-04-20T05:15:18;92775.66;;;7.89;84.10
64402;BME280;50724;42.376;23.768;2023-04-20T05:18:18;92776.63;;;7.88;83.83
64402;BME280;50724;42.376;23.768;2023-04-20T05:21:19;92778.31;;;7.97;83.73
64402;BME280;50724;42.376;23.768;2023-04-20T05:24:19;92782.22;;;8.01;83.88
64402;BME280;50724;42.376;23.768;2023-04-20T05:27:20;92777.00;;;8.01;83.24
64402;BME280;50724;42.376;23.768;2023-04-20T05:30:29;92783.38;;;8.06;84.22
64402;BME280;50724;42.376;23.768;2023-04-20T05:33:29;92781.56;;;8.07;83.83
64402;BME280;50724;42.376;23.768;2023-04-20T05:36:30;92783.88;;;8.10;82.77
64402;BME280;50724;42.376;23.768;2023-04-20T05:39:32;92780.00;;;8.30;82.93
64402;BME280;50724;42.376;23.768;2023-04-20T05:42:33;92775.66;;;8.39;81.89
64402;BME280;50724;42.376;23.768;2023-04-20T05:45:33;92786.09;;;8.71;82.21
64402;BME280;50724;42.376;23.768;2023-04-20T05:48:33;92781.19;;;8.92;80.33
64402;BME280;50724;42.376;23.768;2023-04-20T05:51:34;92787.69;;;9.12;79.81
64402;BME280;50724;42.376;23.768;2023-04-20T05:54:35;92797.56;;;9.57;77.90
64402;BME280;50724;42.376;23.768;2023-04-20T05:57:35;92784.94;;;9.68;75.71
64402;BME280;50724;42.376;23.768;2023-04-20T06:00:41;92792.84;;;9.52;77.30
64402;BME280;50724;42.376;23.768;2023-04-20T06:03:42;92793.38;;;9.24;77.17
64402;BME280;50724;42.376;23.768;2023-04-20T06:06:43;92786.38;;;9.24;76.45
64402;BME280;50724;42.376;23.768;2023-04-20T06:09:44;92786.28;;;9.64;77.43
64402;BME280;50724;42.376;23.768;2023-04-20T06:12:44;92791.56;;;9.40;76.69
64402;BME280;50724;42.376;23.768;2023-04-20T06:15:45;92791.72;;;9.31;76.73
64402;BME280;50724;42.376;23.768;2023-04-20T06:18:45;92791.44;;;9.18;76.45
64402;BME280;50724;42.376;23.768;2023-04-20T06:21:46;92787.69;;;9.12;77.27
64402;BME280;50724;42.376;23.768;2023-04-20T06:24:46;92798.63;;;9.08;77.11
64402;BME280;50724;42.376;23.768;2023-04-20T06:27:47;92791.41;;;9.34;76.65
64402;BME280;50724;42.376;23.768;2023-04-20T06:30:47;92797.16;;;9.13;77.06
64402;BME280;50724;42.376;23.768;2023-04-20T06:33:48;92794.22;;;9.08;76.90
64402;BME280;50724;42.376;23.768;2023-04-20T06:36:49;92796.19;;;9.06;76.84
64402;BME280;50724;42.376;23.768;2023-04-20T06:39:53;92792.09;;;9.04;77.48
64402;BME280;50724;42.376;23.768;2023-04-20T06:42:56;92789.47;;;9.20;76.68
64402;BME280;50724;42.376;23.768;2023-04-20T06:45:57;92795.03;;;9.25;76.92
64402;BME280;50724;42.376;23.768;2023-04-20T06:48:57;92796.19;;;9.14;76.42
64402;BME280;50724;42.376;23.768;2023-04-20T06:51:58;92801.84;;;9.34;76.98
64402;BME280;50724;42.376;23.768;2023-04-20T06:54:58;92804.59;;;9.48;76.89
64402;BME280;50724;42.376;23.768;2023-04-20T06:57:59;92807.16;;;9.64;75.58
64402;BME280;50724;42.376;23.768;2023-04-20T07:01:00;92810.69;;;9.88;75.31
64402;BME280;50724;42.376;23.768;2023-04-20T07:04:01;92807.72;;;9.91;75.58
64402;BME280;50724;42.376;23.768;2023-04-20T07:07:01;92815.94;;;10.26;74.42
64402;BME280;50724;42.376;23.768;2023-04-20T07:10:02;92806.91;;;9.98;75.47
64402;BME280;50724;42.376;23.768;2023-04-20T07:13:03;92817.13;;;10.16;73.45
64402;BME280;50724;42.376;23.768;2023-04-20T07:16:03;92809.66;;;9.97;73.09
64402;BME280;50724;42.376;23.768;2023-04-20T07:19:04;92813.03;;;10.13;73.76
64402;BME280;50724;42.376;23.768;2023-04-20T07:22:04;92807.03;;;9.97;73.68
64402;BME280;50724;42.376;23.768;2023-04-20T07:25:07;92806.84;;;10.14;72.85
64402;BME280;50724;42.376;23.768;2023-04-20T07:28:08;92802.44;;;10.15;73.05
64402;BME280;50724;42.376;23.768;2023-04-20T07:31:09;92802.94;;;10.10;73.13
64402;BME280;50724;42.376;23.768;2023-04-20T07:34:09;92803.88;;;10.48;72.06
64402;BME280;50724;42.376;23.768;2023-04-20T07:37:10;92804.03;;;10.77;71.68
64402;BME280;50724;42.376;23.768;2023-04-20T07:40:12;92810.41;;;10.97;70.47
64402;BME280;50724;42.376;23.768;2023-04-20T07:43:12;92810.59;;;11.33;69.87
64402;BME280;50724;42.376;23.768;2023-04-20T07:46:22;92800.03;;;11.27;69.86
64402;BME280;50724;42.376;23.768;2023-04-20T07:49:24;92813.81;;;11.21;70.59
64402;BME280;50724;42.376;23.768;2023-04-20T07:52:25;92810.53;;;11.56;69.33
64402;BME280;50724;42.376;23.768;2023-04-20T07:55:25;92821.56;;;11.66;69.60
64402;BME280;50724;42.376;23.768;2023-04-20T07:58:26;92812.22;;;11.86;68.89
64402;BME280;50724;42.376;23.768;2023-04-20T08:01:26;92819.16;;;12.08;69.58
64402;BME280;50724;42.376;23.768;2023-04-20T08:04:27;92800.22;;;11.40;68.43
64402;BME280;50724;42.376;23.768;2023-04-20T08:07:27;92808.31;;;10.70;70.23
64402;BME280;50724;42.376;23.768;2023-04-20T08:10:28;92806.75;;;10.61;71.62
64402;BME280;50724;42.376;23.768;2023-04-20T08:13:28;92818.97;;;10.38;71.79
64402;BME280;50724;42.376;23.768;2023-04-20T08:16:30;92813.19;;;10.96;71.32
64402;BME280;50724;42.376;23.768;2023-04-20T08:19:30;92806.91;;;11.05;71.33
64402;BME280;50724;42.376;23.768;2023-04-20T08:22:31;92813.94;;;11.42;70.10
64402;BME280;50724;42.376;23.768;2023-04-20T08:25:32;92808.31;;;11.16;68.97
64402;BME280;50724;42.376;23.768;2023-04-20T08:28:33;92815.72;;;10.89;70.25
64402;BME280;50724;42.376;23.768;2023-04-20T08:31:33;92817.41;;;10.82;69.60
64402;BME280;50724;42.376;23.768;2023-04-20T08:34:34;92802.53;;;10.97;70.53
64402;BME280;50724;42.376;23.768;2023-04-20T08:37:35;92814.50;;;11.52;66.99
64402;BME280;50724;42.376;23.768;2023-04-20T08:40:36;92821.97;;;11.40;67.25
64402;BME280;50724;42.376;23.768;2023-04-20T08:43:37;92813.88;;;11.13;68.58
64402;BME280;50724;42.376;23.768;2023-04-20T08:46:40;92817.97;;;10.92;69.31
64402;BME280;50724;42.376;23.768;2023-04-20T08:49:43;92818.44;;;11.33;70.46
64402;BME280;50724;42.376;23.768;2023-04-20T08:52:45;92811.81;;;11.08;68.53
64402;BME280;50724;42.376;23.768;2023-04-20T08:55:48;92819.25;;;10.96;69.87
64402;BME280;50724;42.376;23.768;2023-04-20T08:58:48;92813.00;;;10.97;68.45
64402;BME280;50724;42.376;23.768;2023-04-20T09:02:08;92811.53;;;10.80;69.81
64402;BME280;50724;42.376;23.768;2023-04-20T09:05:09;92816.16;;;10.93;69.86
64402;BME280;50724;42.376;23.768;2023-04-20T09:08:10;92810.00;;;10.86;69.09
64402;BME280;50724;42.376;23.768;2023-04-20T09:11:23;92818.81;;;11.45;68.84
64402;BME280;50724;42.376;23.768;2023-04-20T09:14:24;92815.00;;;11.33;67.91
64402;BME280;50724;42.376;23.768;2023-04-20T09:17:33;92812.16;;;11.05;68.11
64402;BME280;50724;42.376;23.768;2023-04-20T09:20:33;92823.47;;;10.97;68.41
64402;BME280;50724;42.376;23.768;2023-04-20T09:23:34;92821.81;;;10.82;69.74
64402;BME280;50724;42.376;23.768;2023-04-20T09:26:35;92818.31;;;11.12;68.65
64402;BME280;50724;42.376;23.768;2023-04-20T09:29:35;92817.81;;;11.31;68.52
64402;BME280;50724;42.376;23.768;2023-04-20T09:32:36;92812.91;;;11.28;70.14
64402;BME280;50724;42.376;23.768;2023-04-20T09:35:42;92807.00;;;11.34;69.02
64402;BME280;50724;42.376;23.768;2023-04-20T09:38:43;92807.41;;;11.75;67.22
64402;BME280;50724;42.376;23.768;2023-04-20T09:41:45;92803.09;;;11.97;64.73
64402;BME280;50724;42.376;23.768;2023-04-20T09:44:46;92803.34;;;11.58;66.06
64402;BME280;50724;42.376;23.768;2023-04-20T09:47:47;92807.44;;;11.38;66.25
64402;BME280;50724;42.376;23.768;2023-04-20T09:50:48;92809.16;;;11.45;65.29
64402;BME280;50724;42.376;23.768;2023-04-20T09:53:49;92800.44;;;11.53;66.09
64402;BME280;50724;42.376;23.768;2023-04-20T09:56:51;92812.16;;;11.57;64.92
64402;BME280;50724;42.376;23.768;2023-04-20T09:59:53;92791.28;;;12.36;63.94
64402;BME280;50724;42.376;23.768;2023-04-20T10:02:53;92797.38;;;12.22;63.00
64402;BME280;50724;42.376;23.768;2023-04-20T10:05:54;92803.53;;;11.71;64.67
64402;BME280;50724;42.376;23.768;2023-04-20T10:08:55;92801.91;;;11.85;64.54
64402;BME280;50724;42.376;23.768;2023-04-20T10:12:08;92793.84;;;12.15;66.67
64402;BME280;50724;42.376;23.768;2023-04-20T10:15:09;92780.06;;;12.64;63.23
64402;BME280;50724;42.376;23.768;2023-04-20T10:18:19;92767.75;;;12.43;65.32
64402;BME280;50724;42.376;23.768;2023-04-20T10:21:22;92780.78;;;12.72;63.20
64402;BME280;50724;42.376;23.768;2023-04-20T10:24:30;92779.72;;;12.67;62.02
64402;BME280;50724;42.376;23.768;2023-04-20T10:27:30;92774.97;;;12.56;62.80
64402;BME280;50724;42.376;23.768;2023-04-20T10:30:32;92775.78;;;12.56;63.43
64402;BME280;50724;42.376;23.768;2023-04-20T10:33:33;92773.31;;;12.55;62.85
64402;BME280;50724;42.376;23.768;2023-04-20T10:36:35;92778.13;;;12.51;62.32
64402;BME280;50724;42.376;23.768;2023-04-20T10:39:46;92773.84;;;12.86;62.96
64402;BME280;50724;42.376;23.768;2023-04-20T10:42:47;92779.31;;;13.54;59.87
64402;BME280;50724;42.376;23.768;2023-04-20T10:45:48;92763.06;;;13.17;59.98
64402;BME280;50724;42.376;23.768;2023-04-20T10:48:57;92783.72;;;13.05;62.03
64402;BME280;50724;42.376;23.768;2023-04-20T10:52:00;92784.78;;;12.68;61.99
64402;BME280;50724;42.376;23.768;2023-04-20T10:55:00;92786.28;;;12.98;62.96
64402;BME280;50724;42.376;23.768;2023-04-20T10:58:01;92782.31;;;13.86;63.92
64402;BME280;50724;42.376;23.768;2023-04-20T11:01:03;92780.06;;;13.76;59.51
64402;BME280;50724;42.376;23.768;2023-04-20T11:04:04;92783.56;;;13.90;60.87
64402;BME280;50724;42.376;23.768;2023-04-20T11:07:08;92785.78;;;14.74;56.53
64402;BME280;50724;42.376;23.768;2023-04-20T11:10:09;92782.03;;;14.42;60.55
64402;BME280;50724;42.376;23.768;2023-04-20T11:13:22;92773.41;;;13.80;60.24
64402;BME280;50724;42.376;23.768;2023-04-20T11:16:33;92766.72;;;13.01;62.36
64402;BME280;50724;42.376;23.768;2023-04-20T11:19:35;92782.53;;;12.15;65.34
64402;BME280;50724;42.376;23.768;2023-04-20T11:22:37;92773.63;;;11.95;65.39
64402;BME280;50724;42.376;23.768;2023-04-20T11:25:54;92780.25;;;11.76;66.94
64402;BME280;50724;42.376;23.768;2023-04-20T11:28:55;92778.75;;;11.59;67.47
64402;BME280;50724;42.376;23.768;2023-04-20T11:31:56;92792.94;;;11.64;66.91
64402;BME280;50724;42.376;23.768;2023-04-20T11:35:01;92782.59;;;11.71;66.58
64402;BME280;50724;42.376;23.768;2023-04-20T11:38:02;92784.03;;;11.73;66.45
64402;BME280;50724;42.376;23.768;2023-04-20T11:41:03;92777.63;;;11.76;68.63
64402;BME280;50724;42.376;23.768;2023-04-20T11:44:07;92774.09;;;11.69;68.94
64402;BME280;50724;42.376;23.768;2023-04-20T11:47:07;92772.00;;;11.94;67.03
64402;BME280;50724;42.376;23.768;2023-04-20T11:50:08;92774.06;;;11.98;68.51
64402;BME280;50724;42.376;23.768;2023-04-20T11:53:09;92770.81;;;12.11;68.19
64402;BME280;50724;42.376;23.768;2023-04-20T11:56:13;92764.59;;;12.12;68.87
64402;BME280;50724;42.376;23.768;2023-04-20T11:59:14;92759.06;;;12.07;70.35
64402;BME280;50724;42.376;23.768;2023-04-20T12:02:16;92754.03;;;12.26;70.56
64402;BME280;50724;42.376;23.768;2023-04-20T12:05:16;92748.72;;;12.56;70.37
64402;BME280;50724;42.376;23.768;2023-04-20T12:08:17;92751.84;;;12.45;67.76
64402;BME280;50724;42.376;23.768;2023-04-20T12:11:17;92744.34;;;13.26;65.95
64402;BME280;50724;42.376;23.768;2023-04-20T12:14:18;92748.91;;;13.73;61.57
64402;BME280;50724;42.376;23.768;2023-04-20T12:17:19;92745.50;;;13.79;58.03
64402;BME280;50724;42.376;23.768;2023-04-20T12:20:19;92741.97;;;13.65;59.41
64402;BME280;50724;42.376;23.768;2023-04-20T12:23:20;92740.63;;;14.23;57.82
64402;BME280;50724;42.376;23.768;2023-04-20T12:26:20;92735.47;;;14.30;54.78
64402;BME280;50724;42.376;23.768;2023-04-20T12:29:20;92726.03;;;14.14;55.60
64402;BME280;50724;42.376;23.768;2023-04-20T12:32:21;92731.66;;;14.05;55.78
64402;BME280;50724;42.376;23.768;2023-04-20T12:35:21;92721.94;;;14.53;53.34
64402;BME280;50724;42.376;23.768;2023-04-20T12:38:22;92713.41;;;14.37;52.53
64402;BME280;50724;42.376;23.768;2023-04-20T12:41:31;92701.09;;;13.97;55.37
64402;BME280;50724;42.376;23.768;2023-04-20T12:44:32;92704.34;;;13.58;56.39
64402;BME280;50724;42.376;23.768;2023-04-20T12:47:32;92704.50;;;13.50;55.81
64402;BME280;50724;42.376;23.768;2023-04-20T12:50:33;92700.19;;;13.36;55.67
64402;BME280;50724;42.376;23.768;2023-04-20T12:53:33;92689.03;;;13.34;55.63
64402;BME280;50724;42.376;23.768;2023-04-20T12:56:34;92690.88;;;13.34;57.76
64402;BME280;50724;42.376;23.768;2023-04-20T12:59:35;92697.16;;;13.12;57.12
64402;BME280;50724;42.376;23.768;2023-04-20T13:02:35;92692.63;;;13.27;57.03
64402;BME280;50724;42.376;23.768;2023-04-20T13:05:36;92696.66;;;13.57;55.58
64402;BME280;50724;42.376;23.768;2023-04-20T13:08:36;92694.88;;;13.64;56.68
64402;BME280;50724;42.376;23.768;2023-04-20T13:11:36;92695.34;;;13.40;55.69
64402;BME280;50724;42.376;23.768;2023-04-20T13:14:37;92689.38;;;13.59;55.81
64402;BME280;50724;42.376;23.768;2023-04-20T13:17:37;92689.28;;;13.80;56.36
64402;BME280;50724;42.376;23.768;2023-04-20T13:20:38;92690.88;;;13.74;55.82
64402;BME280;50724;42.376;23.768;2023-04-20T13:23:38;92679.06;;;13.57;56.38
64402;BME280;50724;42.376;23.768;2023-04-20T13:26:39;92681.34;;;13.33;55.13
64402;BME280;50724;42.376;23.768;2023-04-20T13:29:39;92695.75;;;13.16;57.58
64402;BME280;50724;42.376;23.768;2023-04-20T13:32:40;92684.47;;;13.15;56.93
64402;BME280;50724;42.376;23.768;2023-04-20T13:35:41;92693.34;;;13.14;57.45
64402;BME280;50724;42.376;23.768;2023-04-20T13:38:50;92685.78;;;13.32;56.09
64402;BME280;50724;42.376;23.768;2023-04-20T13:41:52;92693.72;;;13.73;55.42
64402;BME280;50724;42.376;23.768;2023-04-20T13:44:53;92683.19;;;14.27;55.17
64402;BME280;50724;42.376;23.768;2023-04-20T13:47:53;92691.41;;;14.58;54.46
64402;BME280;50724;42.376;23.768;2023-04-20T13:50:54;92699.72;;;13.67;52.79
64402;BME280;50724;42.376;23.768;2023-04-20T13:53:54;92701.91;;;12.80;55.39
64402;BME280;50724;42.376;23.768;2023-04-20T13:56:55;92700.56;;;12.63;56.93
64402;BME280;50724;42.376;23.768;2023-04-20T13:59:55;92711.63;;;12.37;60.31
64402;BME280;50724;42.376;23.768;2023-04-20T14:02:55;92705.88;;;12.49;61.31
64402;BME280;50724;42.376;23.768;2023-04-20T14:05:56;92714.72;;;12.26;60.26
64402;BME280;50724;42.376;23.768;2023-04-20T14:08:56;92712.56;;;12.15;60.82
64402;BME280;50724;42.376;23.768;2023-04-20T14:11:57;92724.09;;;12.14;59.43
64402;BME280;50724;42.376;23.768;2023-04-20T14:14:57;92725.84;;;11.78;59.81
64402;BME280;50724;42.376;23.768;2023-04-20T14:17:58;92730.91;;;11.65;61.34
64402;BME280;50724;42.376;23.768;2023-04-20T14:20:59;92733.97;;;11.68;60.42
64402;BME280;50724;42.376;23.768;2023-04-20T14:24:00;92728.44;;;12.07;58.59
64402;BME280;50724;42.376;23.768;2023-04-20T14:27:00;92728.59;;;12.06;58.96
64402;BME280;50724;42.376;23.768;2023-04-20T14:30:01;92741.72;;;12.06;59.55
64402;BME280;50724;42.376;23.768;2023-04-20T14:33:02;92736.75;;;11.67;62.22
64402;BME280;50724;42.376;23.768;2023-04-20T14:36:04;92742.63;;;11.54;63.62
64402;BME280;50724;42.376;23.768;2023-04-20T14:39:04;92746.22;;;11.24;66.81
64402;BME280;50724;42.376;23.768;2023-04-20T14:42:05;92733.78;;;10.89;68.92
64402;BME280;50724;42.376;23.768;2023-04-20T14:45:07;92727.00;;;10.80;70.22
64402;BME280;50724;42.376;23.768;2023-04-20T14:48:07;92731.31;;;10.73;69.72
64402;BME280;50724;42.376;23.768;2023-04-20T14:51:08;92732.41;;;10.78;68.81
64402;BME280;50724;42.376;23.768;2023-04-20T14:54:08;92731.25;;;10.58;69.86
64402;BME280;50724;42.376;23.768;2023-04-20T14:57:09;92739.16;;;10.50;70.25
64402;BME280;50724;42.376;23.768;2023-04-20T15:00:10;92733.56;;;10.53;70.10
64402;BME280;50724;42.376;23.768;2023-04-20T15:03:11;92740.38;;;10.62;70.25
64402;BME280;50724;42.376;23.768;2023-04-20T15:06:11;92742.44;;;10.67;69.63
64402;BME280;50724;42.376;23.768;2023-04-20T15:09:12;92736.84;;;10.78;70.32
64402;BME280;50724;42.376;23.768;2023-04-20T15:12:13;92742.06;;;10.78;69.45
64402;BME280;50724;42.376;23.768;2023-04-20T15:15:15;92740.06;;;10.80;68.97
64402;BME280;50724;42.376;23.768;2023-04-20T15:18:16;92738.47;;;10.93;69.99
64402;BME280;50724;42.376;23.768;2023-04-20T15:21:17;92744.31;;;11.18;66.45
64402;BME280;50724;42.376;23.768;2023-04-20T15:24:17;92734.47;;;11.35;64.13
64402;BME280;50724;42.376;23.768;2023-04-20T15:27:18;92737.75;;;11.51;64.61
64402;BME280;50724;42.376;23.768;2023-04-20T15:30:18;92734.78;;;11.84;63.32
64402;BME280;50724;42.376;23.768;2023-04-20T15:33:20;92735.31;;;11.94;60.73
64402;BME280;50724;42.376;23.768;2023-04-20T15:36:20;92732.94;;;12.13;59.86
64402;BME280;50724;42.376;23.768;2023-04-20T15:39:20;92734.66;;;12.06;58.95
64402;BME280;50724;42.376;23.768;2023-04-20T15:42:21;92739.25;;;12.19;57.64
64402;BME280;50724;42.376;23.768;2023-04-20T15:45:22;92739.72;;;12.43;58.04
64402;BME280;50724;42.376;23.768;2023-04-20T15:48:22;92737.16;;;12.50;60.13
64402;BME280;50724;42.376;23.768;2023-04-20T15:51:23;92731.19;;;12.20;61.34
64402;BME280;50724;42.376;23.768;2023-04-20T15:54:24;92732.84;;;12.42;62.91